Time;durP1;ratioP1;P1;durP2;ratioP2;P2;SDS_P1;SDS_P2;PMS_P1;PMS_P2;Temp;Humidity;BMP_temperature;BMP_pressure;BME280_temperature;BME280_humidity;BME280_pressure;Samples;Min_cycle;Max_cycle;Signal;HPM_P1;HPM_P2
2021/09/14 00:01:46;;;;;;;24.98;15.32;;;;;;;15.53;98.71;99316.17;1644455;86;20980;-69
2021/09/14 00:04:18;;;;;;;20.08;13.88;;;;;;;15.50;98.75;99310.77;1652253;85;20952;-69
2021/09/14 00:06:49;;;;;;;22.10;13.83;;;;;;;15.49;98.62;99313.89;1654259;85;20996;-68
2021/09/14 00:09:17;;;;;;;22.20;13.93;;;;;;;15.48;98.35;99313.66;1649388;85;21229;-68
2021/09/14 00:11:49;;;;;;;20.50;13.80;;;;;;;15.44;98.29;99321.06;1688637;83;20945;-68
2021/09/14 00:14:22;;;;;;;24.05;13.88;;;;;;;15.40;98.26;99320.96;1655506;85;20933;-68
2021/09/14 00:16:52;;;;;;;22.98;14.07;;;;;;;15.37;97.99;99325.81;1625890;86;20921;-68
2021/09/14 00:19:23;;;;;;;23.67;14.80;;;;;;;15.34;98.35;99329.86;1624549;87;21022;-69
2021/09/14 00:21:57;;;;;;;19.52;12.95;;;;;;;15.32;98.56;99325.27;1624786;86;20895;-68
2021/09/14 00:24:29;;;;;;;;;;;;;;;15.28;98.58;99328.51;1605735;88;21100;-69
2021/09/14 00:27:03;;;;;;;21.87;12.85;;;;;;;15.25;98.61;99320.91;1657011;85;20196;-69
2021/09/14 00:29:35;;;;;;;18.90;13.38;;;;;;;15.20;98.46;99317.25;1624220;87;21029;-69
2021/09/14 00:32:06;;;;;;;25.65;13.50;;;;;;;15.16;98.56;99319.68;1619905;88;21130;-69
2021/09/14 00:34:38;;;;;;;20.77;13.32;;;;;;;15.08;98.57;99320.05;1656225;85;21824;-69
2021/09/14 00:37:15;;;;;;;21.75;12.58;;;;;;;15.05;98.65;99319.38;1658031;86;21579;-69
2021/09/14 00:39:46;;;;;;;22.85;13.08;;;;;;;15.02;98.97;99319.30;1654554;85;21468;-69
2021/09/14 00:42:18;;;;;;;18.07;12.45;;;;;;;15.00;99.42;99322.41;1655539;85;21012;-69
2021/09/14 00:44:49;;;;;;;18.93;12.63;;;;;;;15.02;100.00;99317.31;1656954;85;21413;-70
2021/09/14 00:47:29;;;;;;;26.30;15.05;;;;;;;15.01;99.98;99314.34;1639011;86;21092;-70
2021/09/14 00:50:02;;;;;;;23.32;12.85;;;;;;;14.98;100.00;99316.43;1649873;85;21018;-70
2021/09/14 00:52:35;;;;;;;19.00;12.88;;;;;;;14.94;100.00;99315.52;1624335;87;21576;-70
2021/09/14 00:55:09;;;;;;;17.55;12.88;;;;;;;14.91;99.81;99316.22;1657762;86;21048;-70
2021/09/14 00:57:39;;;;;;;21.10;12.55;;;;;;;14.88;100.00;99307.25;1657120;85;21003;-70
2021/09/14 01:00:09;;;;;;;19.87;12.73;;;;;;;14.86;99.81;99313.13;1652737;85;21159;-71
2021/09/14 01:02:46;;;;;;;22.77;14.73;;;;;;;14.83;99.74;99315.78;1624137;87;21053;-71
2021/09/14 01:05:19;;;;;;;18.65;13.30;;;;;;;14.79;99.96;99313.48;1646557;85;21081;-70
2021/09/14 01:07:49;;;;;;;19.45;13.35;;;;;;;14.78;100.00;99320.16;1645794;85;21432;-70
2021/09/14 01:10:19;;;;;;;;;;;;;;;14.76;100.00;99321.09;1675645;83;21585;-71
2021/09/14 01:12:51;;;;;;;18.55;12.88;;;;;;;14.73;100.00;99318.45;1660922;84;20137;-71
2021/09/14 01:15:37;;;;;;;19.45;13.53;;;;;;;14.70;100.00;99324.67;1653342;85;21542;-71
2021/09/14 01:17:55;;;;;;;19.62;13.75;;;;;;;14.70;100.00;99328.02;1647917;84;21019;-70
2021/09/14 01:20:29;;;;;;;24.95;13.43;;;;;;;14.70;100.00;99319.72;1654630;85;21016;-70
2021/09/14 01:22:59;;;;;;;20.05;13.45;;;;;;;14.74;100.00;99326.16;1639362;86;21470;-70
2021/09/14 01:25:36;;;;;;;18.60;13.85;;;;;;;14.78;100.00;99324.31;1653848;85;20987;-71
2021/09/14 01:28:08;;;;;;;17.32;12.88;;;;;;;14.82;100.00;99328.80;1652680;85;20921;-72
2021/09/14 01:30:39;;;;;;;18.42;12.82;;;;;;;14.85;100.00;99321.77;1654738;86;21030;-72
2021/09/14 01:33:09;;;;;;;19.52;13.40;;;;;;;14.86;100.00;99324.17;1655224;85;20944;-70
2021/09/14 01:35:42;;;;;;;21.23;13.58;;;;;;;14.89;100.00;99328.20;1655815;84;20980;-70
2021/09/14 01:38:15;;;;;;;21.42;13.90;;;;;;;14.92;100.00;99328.08;1624341;87;21132;-71
2021/09/14 01:40:47;;;;;;;24.03;14.90;;;;;;;14.91;100.00;99331.42;1653715;85;21088;-70
2021/09/14 01:43:15;;;;;;;;;;;;;;;14.90;100.00;99329.81;1613345;87;20947;-70
2021/09/14 01:45:48;;;;;;;21.33;12.78;;;;;;;14.89;100.00;99328.78;1599311;88;20434;-71
2021/09/14 01:48:23;;;;;;;19.60;13.08;;;;;;;14.84;100.00;99330.63;1626743;86;21034;-71
2021/09/14 01:50:55;;;;;;;19.40;13.18;;;;;;;14.79;100.00;99326.73;1624135;87;21164;-70
2021/09/14 01:53:27;;;;;;;19.77;12.93;;;;;;;14.77;100.00;99325.47;1641627;84;21439;-70
2021/09/14 01:56:05;;;;;;;21.27;12.68;;;;;;;14.73;100.00;99329.50;1651353;85;20900;-70
2021/09/14 01:58:37;;;;;;;23.70;14.13;;;;;;;14.71;100.00;99329.05;1651697;85;20988;-70
2021/09/14 02:01:18;;;;;;;17.20;13.25;;;;;;;14.66;100.00;99328.48;1614937;87;27035;-70
2021/09/14 02:03:57;;;;;;;19.52;13.50;;;;;;;14.58;100.00;99325.27;1612577;87;21064;-71
2021/09/14 02:59:37;;;;;;;30.30;17.23;;;;;;;13.71;100.00;99355.36;1657787;85;21172;-70
2021/09/14 03:02:04;;;;;;;;;;;;;;;13.65;100.00;99351.78;1655774;85;20990;-69
2021/09/14 03:04:42;;;;;;;20.95;14.85;;;;;;;13.60;100.00;99354.18;1658856;86;20454;-69
2021/09/14 03:07:12;;;;;;;23.45;14.07;;;;;;;13.57;100.00;99360.37;1650984;84;21515;-70
2021/09/14 03:09:46;;;;;;;21.25;13.98;;;;;;;13.50;100.00;99358.74;1648493;85;21092;-70
2021/09/14 03:12:17;;;;;;;22.73;13.80;;;;;;;13.47;100.00;99364.36;1637752;86;21445;-70
2021/09/14 03:14:48;;;;;;;20.97;13.05;;;;;;;13.41;100.00;99360.77;1651886;85;21456;-70
2021/09/14 03:17:19;;;;;;;19.17;13.18;;;;;;;13.33;100.00;99365.80;1649168;85;21459;-70
2021/09/14 03:19:50;;;;;;;24.47;12.33;;;;;;;13.28;100.00;99368.22;1651424;86;20995;-69
2021/09/14 03:22:21;;;;;;;21.25;13.88;;;;;;;13.26;100.00;99369.70;1624313;86;20985;-70
2021/09/14 03:24:53;;;;;;;19.60;13.55;;;;;;;13.25;100.00;99373.59;1657311;84;20990;-70
2021/09/14 03:27:22;;;;;;;22.85;13.88;;;;;;;13.24;100.00;99370.61;1655549;85;21223;-70
2021/09/14 03:29:54;;;;;;;22.93;14.33;;;;;;;13.19;100.00;99375.18;1655162;85;21891;-69
2021/09/14 03:32:21;;;;;;;17.07;12.55;;;;;;;13.18;100.00;99377.70;1654117;86;20951;-71
2021/09/14 03:34:51;;;;;;;21.57;13.72;;;;;;;13.16;100.00;99376.42;1653016;85;21042;-69
2021/09/14 03:37:21;;;;;;;20.02;12.53;;;;;;;13.11;100.00;99378.78;1649541;86;21890;-71
2021/09/14 03:39:53;;;;;;;19.85;12.80;;;;;;;13.10;100.00;99379.92;1631337;86;20996;-69
2021/09/14 03:42:25;;;;;;;20.27;13.40;;;;;;;13.08;100.00;99378.08;1648195;86;21070;-69
2021/09/14 03:44:57;;;;;;;24.27;14.30;;;;;;;13.04;100.00;99383.22;1645829;86;20986;-69
2021/09/14 03:47:27;;;;;;;20.12;13.83;;;;;;;13.04;100.00;99383.22;1654587;86;21514;-70
2021/09/14 03:50:01;;;;;;;31.10;14.23;;;;;;;13.03;100.00;99380.22;1651155;86;21154;-71
2021/09/14 03:52:34;;;;;;;24.87;14.28;;;;;;;13.02;100.00;99384.93;1648835;86;21030;-70
2021/09/14 03:55:08;;;;;;;21.87;13.62;;;;;;;13.04;100.00;99385.40;1643068;85;20937;-70
2021/09/14 03:57:40;;;;;;;23.90;13.15;;;;;;;13.03;100.00;99388.49;1650344;86;20983;-69
2021/09/14 04:00:13;;;;;;;19.27;13.22;;;;;;;13.02;100.00;99391.81;1645577;86;20932;-70
2021/09/14 04:05:37;;;;;;;21.05;12.82;;;;;;;12.96;100.00;99400.05;1648006;86;20400;-70
2021/09/14 04:10:36;;;;;;;21.02;13.72;;;;;;;12.93;100.00;99410.36;1652822;85;20975;-70
2021/09/14 04:13:06;;;;;;;26.75;15.53;;;;;;;12.97;100.00;99403.61;1658040;86;21006;-70
2021/09/14 04:15:37;;;;;;;27.02;14.78;;;;;;;13.02;100.00;99404.79;1654125;85;21144;-70
2021/09/14 04:18:10;;;;;;;41.00;16.05;;;;;;;13.06;100.00;99410.67;1641993;86;21025;-70
2021/09/14 04:20:38;;;;;;;21.85;14.47;;;;;;;13.11;100.00;99406.91;1658234;84;20927;-71
2021/09/14 04:23:08;;;;;;;26.33;14.83;;;;;;;13.15;100.00;99411.42;1657095;85;20930;-69
2021/09/14 04:25:41;;;;;;;25.72;16.67;;;;;;;13.19;100.00;99416.52;1629130;87;21548;-70
2021/09/14 04:28:16;;;;;;;27.10;15.83;;;;;;;13.26;100.00;99423.45;1638134;86;21159;-73
2021/09/14 04:30:46;;;;;;;19.57;14.10;;;;;;;13.30;100.00;99426.55;1645978;85;21107;-68
2021/09/14 04:33:17;;;;;;;21.23;14.53;;;;;;;13.35;100.00;99424.97;1647594;86;21273;-71
2021/09/14 04:35:48;;;;;;;24.40;14.65;;;;;;;13.41;100.00;99433.27;1643924;86;21083;-73
2021/09/14 04:38:21;;;;;;;21.50;14.73;;;;;;;13.46;100.00;99436.39;1651745;85;21091;-73
2021/09/14 04:40:50;;;;;;;18.62;13.80;;;;;;;13.52;100.00;99435.86;1650824;85;21853;-73
2021/09/14 04:43:28;;;;;;;29.12;15.13;;;;;;;13.59;100.00;99439.45;1653113;85;20969;-68
2021/09/14 04:46:00;;;;;;;23.75;14.70;;;;;;;13.66;100.00;99439.70;1652427;85;20995;-69
2021/09/14 04:48:34;;;;;;;24.25;15.15;;;;;;;13.74;100.00;99438.02;1652949;86;21132;-69
2021/09/14 04:51:02;;;;;;;26.50;15.25;;;;;;;13.83;100.00;99438.17;1651640;85;21547;-68
2021/09/14 04:53:35;;;;;;;22.30;14.78;;;;;;;13.89;100.00;99445.05;1651759;85;21483;-72
2021/09/14 04:56:07;;;;;;;51.95;16.73;;;;;;;13.97;100.00;99446.69;1618252;86;21098;-68
2021/09/14 04:58:43;;;;;;;24.10;14.70;;;;;;;14.02;100.00;99447.28;1657616;84;21010;-69
2021/09/14 05:01:22;;;;;;;23.95;13.80;;;;;;;14.08;100.00;99447.88;1677870;84;21070;-69
2021/09/14 05:03:55;;;;;;;20.97;14.40;;;;;;;14.19;100.00;99449.05;1655294;85;21137;-70
2021/09/14 05:06:25;;;;;;;21.62;14.83;;;;;;;14.27;100.00;99452.30;1676250;84;21168;-69
2021/09/14 05:09:01;;;;;;;18.30;14.07;;;;;;;14.34;100.00;99452.53;1675250;84;21554;-69
2021/09/14 05:11:30;;;;;;;24.30;14.70;;;;;;;14.41;100.00;99445.91;1655383;85;20963;-70
2021/09/14 05:14:00;;;;;;;20.30;14.40;;;;;;;14.52;100.00;99446.23;1677414;83;21538;-68
2021/09/14 05:16:34;;;;;;;22.67;13.70;;;;;;;14.62;100.00;99444.97;1684809;84;21581;-66
2021/09/14 05:19:13;;;;;;;19.62;13.45;;;;;;;14.70;100.00;99448.20;1686260;84;20924;-66
2021/09/14 05:21:46;;;;;;;24.67;13.83;;;;;;;14.77;100.00;99445.66;1680535;84;21530;-69
2021/09/14 05:24:17;;;;;;;20.62;13.35;;;;;;;14.85;100.00;99450.27;1674004;85;21023;-69
2021/09/14 05:26:51;;;;;;;22.15;13.22;;;;;;;14.93;100.00;99444.39;1682874;84;20923;-68
2021/09/14 05:29:24;;;;;;;21.20;13.22;;;;;;;15.05;100.00;99441.01;1657326;85;21043;-67
2021/09/14 05:31:57;;;;;;;20.05;14.25;;;;;;;15.19;100.00;99445.59;1680378;84;21746;-68
2021/09/14 05:34:28;;;;;;;22.27;13.53;;;;;;;15.33;100.00;99448.56;1687680;84;20915;-69
2021/09/14 05:37:00;;;;;;;20.70;13.03;;;;;;;15.47;100.00;99451.75;1682653;84;20987;-68
2021/09/14 05:39:31;;;;;;;17.73;12.73;;;;;;;15.55;100.00;99457.73;1683101;85;20971;-69
2021/09/14 05:42:15;;;;;;;17.75;12.47;;;;;;;15.62;100.00;99458.52;1678359;85;20920;-69
2021/09/14 05:44:48;;;;;;;20.92;13.32;;;;;;;15.68;99.88;99460.67;1651947;85;21172;-66
2021/09/14 05:47:17;;;;;;;17.90;11.90;;;;;;;15.76;99.65;99457.53;1652070;85;20980;-65
2021/09/14 05:49:54;;;;;;;19.00;12.25;;;;;;;15.85;98.99;99456.81;1652870;86;21011;-71
2021/09/14 05:52:29;;;;;;;21.90;12.25;;;;;;;15.95;98.80;99463.80;1650313;85;21126;-66
2021/09/14 05:54:51;;;;;;;17.00;11.60;;;;;;;16.05;97.19;99470.22;1648890;86;21067;-67
2021/09/14 05:57:23;;;;;;;19.05;10.63;;;;;;;16.14;96.67;99467.52;1652166;86;20990;-65
2021/09/14 05:59:57;;;;;;;15.68;10.45;;;;;;;16.25;95.31;99471.92;1627718;86;21015;-69
2021/09/14 06:02:30;;;;;;;17.23;10.13;;;;;;;16.38;94.59;99467.12;1655202;85;21147;-68
2021/09/14 06:05:01;;;;;;;13.15;10.32;;;;;;;16.49;93.66;99465.42;1647213;85;21780;-67
2021/09/14 06:07:34;;;;;;;18.00;9.90;;;;;;;16.57;91.73;99469.19;1636363;86;20981;-68
2021/09/14 06:10:01;;;;;;;18.65;9.90;;;;;;;16.61;90.93;99471.47;1633012;85;21099;-67
2021/09/14 06:12:34;;;;;;;19.60;10.30;;;;;;;16.68;91.47;99469.70;1653426;85;21049;-64
2021/09/14 06:15:07;;;;;;;16.07;10.40;;;;;;;16.82;91.31;99479.73;1654501;85;21018;-63
2021/09/14 06:17:36;;;;;;;21.62;12.18;;;;;;;16.92;89.03;99472.84;1655138;85;21079;-63
2021/09/14 06:20:22;;;;;;;;;;;;;;;16.95;88.75;99466.58;1649389;85;21050;-67
2021/09/14 06:22:45;;;;;;;29.15;14.78;;;;;;;17.01;88.85;99468.48;1651916;85;21982;-64
2021/09/14 06:25:16;;;;;;;21.65;13.18;;;;;;;17.08;89.14;99464.50;1652669;85;21042;-64
2021/09/14 06:27:49;;;;;;;22.62;12.78;;;;;;;17.21;87.98;99461.03;1655609;84;21633;-66
2021/09/14 06:30:23;;;;;;;21.62;13.48;;;;;;;17.31;87.55;99463.23;1626155;86;21082;-64
2021/09/14 06:32:56;;;;;;;18.60;10.95;;;;;;;17.45;87.02;99462.14;1651572;86;21055;-65
2021/09/14 06:35:28;;;;;;;15.48;10.82;;;;;;;17.58;85.42;99460.03;1629126;86;21428;-65
2021/09/14 06:38:01;;;;;;;18.87;11.45;;;;;;;17.68;84.66;99458.09;1647098;86;21550;-66
2021/09/14 06:40:40;;;;;;;15.53;9.60;;;;;;;17.81;84.57;99464.52;1652394;86;21053;-68
2021/09/14 06:43:17;;;;;;;13.20;8.75;;;;;;;17.97;84.77;99459.44;1632215;86;20954;-67
2021/09/14 06:45:49;;;;;;;15.25;9.08;;;;;;;18.14;83.52;99466.73;1652708;85;21588;-66
2021/09/14 06:48:27;;;;;;;20.75;10.43;;;;;;;18.31;82.30;99462.68;1647703;85;21110;-65
2021/09/14 06:50:57;;;;;;;20.00;11.10;;;;;;;18.46;82.12;99467.91;1651730;86;21099;-66
2021/09/14 06:53:31;;;;;;;18.15;9.98;;;;;;;18.61;81.41;99463.41;1654996;86;21089;-67
2021/09/14 06:56:01;;;;;;;17.52;9.83;;;;;;;18.78;80.29;99465.09;1622775;86;21525;-69
2021/09/14 06:58:34;;;;;;;13.05;9.30;;;;;;;18.92;78.95;99467.30;1648411;86;21185;-65
2021/09/14 07:01:11;;;;;;;17.67;9.30;;;;;;;19.01;78.83;99466.45;1626661;86;21059;-64
2021/09/14 07:03:42;;;;;;;18.25;9.80;;;;;;;19.13;78.01;99475.15;1647372;85;20952;-66
2021/09/14 07:06:13;;;;;;;20.48;10.70;;;;;;;19.24;77.66;99466.38;1646990;85;20914;-66
2021/09/14 07:08:42;;;;;;;12.25;8.43;;;;;;;19.39;76.20;99459.83;1631459;86;21004;-68
2021/09/14 07:11:13;;;;;;;16.42;10.13;;;;;;;19.46;75.16;99466.89;1657662;86;21524;-69
2021/09/14 07:13:45;;;;;;;13.38;8.70;;;;;;;19.53;74.93;99467.61;1647116;86;21998;-67
2021/09/14 07:16:16;;;;;;;12.78;8.45;;;;;;;19.64;74.52;99467.13;1649711;86;20964;-65
2021/09/14 07:18:48;;;;;;;16.27;8.60;;;;;;;19.90;74.15;99466.27;1652663;85;21396;-65
2021/09/14 07:21:15;;;;;;;15.80;8.95;;;;;;;20.34;72.38;99468.31;1652578;85;21942;-66
2021/09/14 07:23:45;;;;;;;10.08;7.40;;;;;;;20.85;69.71;99470.38;1626859;86;21605;-65
2021/09/14 07:26:20;;;;;;;10.13;7.15;;;;;;;21.37;68.71;99474.77;1646784;86;21834;-64
2021/09/14 07:28:49;;;;;;;11.88;6.95;;;;;;;21.81;65.05;99470.98;1655897;86;21077;-64
2021/09/14 07:31:17;;;;;;;10.43;6.22;;;;;;;22.18;65.11;99469.31;1645701;85;21236;-65
2021/09/14 07:33:45;;;;;;;18.87;7.55;;;;;;;22.60;63.20;99469.97;1651260;86;21134;-67
2021/09/14 07:36:19;;;;;;;15.40;7.05;;;;;;;23.06;62.31;99470.00;1653451;86;21097;-66
2021/09/14 07:38:49;;;;;;;11.10;6.28;;;;;;;23.51;59.63;99472.50;1644244;86;21150;-66
2021/09/14 07:41:23;;;;;;;6.75;5.28;;;;;;;23.76;57.42;99471.62;1641392;86;21078;-66
2021/09/14 07:43:54;;;;;;;10.58;6.15;;;;;;;23.94;56.78;99463.94;1636469;87;20996;-65
2021/09/14 07:46:27;;;;;;;10.23;5.65;;;;;;;24.12;56.54;99464.66;1648110;85;21034;-65
2021/09/14 07:48:58;;;;;;;9.35;4.83;;;;;;;24.11;53.90;99463.66;1651426;86;21015;-66
2021/09/14 07:51:31;;;;;;;20.10;6.20;;;;;;;24.08;54.74;99464.48;1646270;86;21966;-68
2021/09/14 07:54:00;;;;;;;7.22;4.20;;;;;;;24.22;54.92;99464.40;1648077;85;21004;-70
2021/09/14 07:56:28;;;;;;;9.65;3.70;;;;;;;24.46;52.79;99462.05;1650042;85;21045;-67
2021/09/14 07:59:02;;;;;;;4.95;3.33;;;;;;;24.77;52.49;99467.23;1655763;85;21068;-66
2021/09/14 08:01:37;;;;;;;7.70;3.30;;;;;;;25.01;49.50;99464.82;1656804;85;20907;-66
2021/09/14 08:04:06;;;;;;;5.35;3.27;;;;;;;25.09;48.59;99464.16;1659907;84;20998;-65
2021/09/14 08:06:37;;;;;;;7.35;3.70;;;;;;;25.19;48.37;99459.65;1652130;85;21023;-64
2021/09/14 08:09:13;;;;;;;6.37;3.85;;;;;;;25.26;48.50;99459.58;1656275;85;20957;-66
2021/09/14 08:11:32;;;;;;;9.68;3.50;;;;;;;25.38;47.94;99466.69;1657461;85;20942;-67
2021/09/14 08:14:04;;;;;;;5.83;3.70;;;;;;;25.40;47.21;99470.67;1663224;85;21006;-67
2021/09/14 08:16:34;;;;;;;8.65;4.58;;;;;;;25.44;47.59;99467.80;1649375;86;21539;-67
2021/09/14 08:19:04;;;;;;;7.05;4.33;;;;;;;25.57;48.93;99470.27;1656112;85;21204;-67
2021/09/14 08:21:34;;;;;;;4.65;3.62;;;;;;;25.69;47.49;99474.58;1655522;85;21089;-66
2021/09/14 08:24:09;;;;;;;;;;;;;;;25.70;46.79;99476.17;1658838;85;21097;-66
2021/09/14 08:26:42;;;;;;;4.42;3.45;;;;;;;25.67;46.80;99477.81;1626391;86;20133;-68
2021/09/14 08:29:12;;;;;;;6.67;3.60;;;;;;;25.68;45.67;99475.80;1607933;87;21162;-67
2021/09/14 08:31:47;;;;;;;10.38;4.17;;;;;;;25.68;46.15;99470.17;1618951;87;21754;-65
2021/09/14 08:34:16;;;;;;;6.83;3.60;;;;;;;25.76;46.12;99470.28;1649775;85;21129;-65
2021/09/14 08:36:45;;;;;;;5.85;3.67;;;;;;;25.74;46.21;99470.70;1649583;85;21302;-65
2021/09/14 08:39:19;;;;;;;10.05;3.85;;;;;;;25.78;47.01;99472.86;1654326;85;21916;-68
2021/09/14 08:41:47;;;;;;;7.05;3.25;;;;;;;25.98;46.18;99467.39;1638536;86;20973;-64
2021/09/14 08:44:20;;;;;;;12.13;3.40;;;;;;;26.18;45.54;99468.30;1636508;86;20905;-67
2021/09/14 08:46:50;;;;;;;29.07;16.45;;;;;;;26.42;45.22;99461.36;1649222;86;20916;-67
2021/09/14 08:49:26;;;;;;;41.90;18.00;;;;;;;26.68;43.80;99466.16;1602797;87;20955;-67
2021/09/14 08:51:56;;;;;;;47.25;17.00;;;;;;;26.79;42.35;99463.97;1577672;89;20954;-68
2021/09/14 08:54:26;;;;;;;13.35;6.92;;;;;;;26.80;42.03;99459.13;1595923;88;21162;-67
2021/09/14 08:56:55;;;;;;;6.50;3.62;;;;;;;26.80;41.50;99465.56;1625864;87;21617;-68
2021/09/14 08:59:34;;;;;;;7.05;3.50;;;;;;;26.84;42.26;99461.28;1624087;87;21096;-70
2021/09/14 09:02:07;;;;;;;25.05;11.65;;;;;;;26.92;41.33;99460.73;1614750;87;22069;-71
2021/09/14 09:04:39;;;;;;;40.15;17.07;;;;;;;27.05;42.38;99458.13;1650230;85;20942;-69
2021/09/14 09:07:10;;;;;;;12.95;4.92;;;;;;;27.21;42.09;99461.64;1641240;86;21160;-69
2021/09/14 09:09:42;;;;;;;;;;;;;;;26.94;40.72;99465.94;1660997;84;21659;-68
2021/09/14 09:12:11;;;;;;;15.25;6.28;;;;;;;26.82;42.24;99467.95;1666021;85;20187;-67
2021/09/14 09:14:47;;;;;;;16.93;8.85;;;;;;;26.93;40.37;99466.55;1645320;84;20956;-68
2021/09/14 09:17:26;;;;;;;10.30;5.42;;;;;;;26.95;39.71;99465.51;1649722;85;20969;-68
2021/09/14 09:20:06;;;;;;;14.53;8.38;;;;;;;27.00;39.08;99463.45;1651684;85;21185;-71
2021/09/14 09:22:33;;;;;;;10.03;5.70;;;;;;;26.98;39.42;99463.89;1635887;85;20985;-68
2021/09/14 09:25:06;;;;;;;13.70;5.95;;;;;;;26.78;40.01;99456.74;1642681;85;21583;-68
2021/09/14 09:27:37;;;;;;;11.50;5.92;;;;;;;26.38;39.83;99455.78;1631014;85;21519;-68
2021/09/14 09:30:09;;;;;;;9.83;4.87;;;;;;;26.07;41.64;99456.39;1655854;85;21580;-70
2021/09/14 09:32:49;;;;;;;6.08;3.60;;;;;;;26.16;43.18;99455.88;1658066;86;21169;-70
2021/09/14 09:35:30;;;;;;;7.37;3.15;;;;;;;26.56;41.39;99458.33;1639801;85;21903;-68
2021/09/14 09:38:03;;;;;;;8.45;3.25;;;;;;;26.94;40.75;99447.63;1652348;86;21464;-69
2021/09/14 09:40:41;;;;;;;9.70;2.95;;;;;;;27.22;39.71;99443.52;1648834;86;21130;-69
2021/09/14 09:43:15;;;;;;;15.83;7.83;;;;;;;27.34;40.18;99449.92;1656113;85;21091;-69
2021/09/14 09:45:49;;;;;;;17.35;10.28;;;;;;;27.24;38.54;99450.92;1644221;86;21050;-70
2021/09/14 09:48:19;;;;;;;11.93;7.70;;;;;;;27.15;38.45;99449.30;1654347;85;20981;-68
2021/09/14 09:50:55;;;;;;;11.80;6.28;;;;;;;27.27;37.72;99445.83;1655455;85;20941;-69
2021/09/14 09:53:28;;;;;;;12.58;7.67;;;;;;;27.54;38.95;99447.92;1655606;84;21016;-69
2021/09/14 09:55:57;;;;;;;9.15;5.55;;;;;;;27.98;38.12;99441.59;1620833;86;21504;-68
2021/09/14 09:58:32;;;;;;;9.83;6.05;;;;;;;28.28;36.22;99439.76;1648929;84;21850;-68
2021/09/14 10:01:17;;;;;;;6.78;3.87;;;;;;;28.19;36.59;99444.56;1656428;85;20932;-72
2021/09/14 10:03:50;;;;;;;6.17;3.37;;;;;;;28.02;36.29;99445.13;1654690;85;21107;-70
2021/09/14 10:06:20;;;;;;;8.48;4.00;;;;;;;27.82;37.08;99447.17;1648114;84;21020;-70
2021/09/14 10:08:53;;;;;;;11.22;5.45;;;;;;;27.89;37.12;99447.81;1650766;85;21623;-68
2021/09/14 10:11:36;;;;;;;6.62;3.37;;;;;;;27.94;36.06;99449.33;1654395;85;20944;-67
2021/09/14 10:14:14;;;;;;;7.70;2.70;;;;;;;27.66;35.79;99446.52;1649798;84;21004;-68
2021/09/14 10:16:45;;;;;;;;;;;;;;;27.31;36.85;99452.20;1652125;83;20980;-67
2021/09/14 10:19:17;;;;;;;7.80;3.30;;;;;;;27.01;36.55;99455.98;1656399;84;20088;-68
2021/09/14 10:22:05;;;;;;;5.62;3.50;;;;;;;26.83;37.92;99458.27;1649884;85;21123;-68
2021/09/14 10:24:36;;;;;;;7.72;3.37;;;;;;;26.96;38.80;99446.61;1650613;86;21111;-68
2021/09/14 10:27:15;;;;;;;11.55;3.02;;;;;;;27.28;38.51;99449.63;1654904;85;21139;-67
2021/09/14 10:29:51;;;;;;;7.42;2.70;;;;;;;27.67;37.08;99448.11;1634430;85;21109;-69
2021/09/14 10:32:24;;;;;;;3.33;2.50;;;;;;;27.80;36.95;99445.41;1654377;85;20977;-77
2021/09/14 10:34:57;;;;;;;6.83;3.85;;;;;;;27.66;36.15;99451.36;1642276;84;20965;-73
2021/09/14 10:37:33;;;;;;;6.28;3.92;;;;;;;27.27;36.67;99452.87;1651360;85;27080;-69
2021/09/14 10:40:16;;;;;;;17.05;5.30;;;;;;;26.82;37.02;99449.64;1626569;85;21655;-68
2021/09/14 10:42:48;;;;;;;7.80;4.40;;;;;;;26.15;37.68;99460.70;1634656;86;20991;-68
2021/09/14 10:45:20;;;;;;;9.08;5.20;;;;;;;25.52;38.99;99460.27;1650702;85;21094;-67
2021/09/14 10:47:54;;;;;;;6.22;4.08;;;;;;;25.29;40.99;99460.15;1655806;85;21035;-67
2021/09/14 10:50:32;;;;;;;9.75;5.75;;;;;;;25.43;41.24;99458.56;1655371;86;21519;-66
2021/09/14 10:53:06;;;;;;;9.85;5.30;;;;;;;25.69;40.74;99464.12;1658445;85;21498;-66
2021/09/14 10:55:35;;;;;;;5.00;4.00;;;;;;;25.63;41.36;99463.77;1654959;85;21094;-67
2021/09/14 10:58:04;;;;;;;9.58;4.85;;;;;;;25.32;39.83;99457.30;1656713;85;20996;-68
2021/09/14 11:00:33;;;;;;;10.43;5.55;;;;;;;25.00;42.36;99463.23;1655442;86;21058;-67
2021/09/14 11:03:09;;;;;;;9.85;4.15;;;;;;;24.74;41.85;99459.64;1656409;85;21241;-67
2021/09/14 11:05:37;;;;;;;6.53;3.98;;;;;;;24.46;42.68;99459.23;1654255;85;21432;-67
2021/09/14 11:08:09;;;;;;;5.72;3.83;;;;;;;24.46;44.87;99455.03;1655548;85;21248;-66
2021/09/14 11:10:45;;;;;;;11.83;5.40;;;;;;;24.81;44.32;99455.38;1657534;85;21532;-61
2021/09/14 11:13:23;;;;;;;12.75;4.83;;;;;;;25.09;42.99;99450.11;1655579;85;21050;-63
2021/09/14 11:16:01;;;;;;;24.90;6.30;;;;;;;25.20;42.77;99448.60;1656791;85;21104;-63
2021/09/14 11:18:37;;;;;;;13.45;4.90;;;;;;;25.31;42.86;99443.67;1654462;85;20990;-64
2021/09/14 11:21:13;;;;;;;9.20;3.70;;;;;;;25.29;41.48;99451.72;1660939;85;21550;-63
2021/09/14 11:23:52;;;;;;;7.95;3.62;;;;;;;25.01;42.73;99446.57;1640649;85;20905;-63
2021/09/14 11:26:24;;;;;;;8.15;4.75;;;;;;;24.77;42.44;99453.20;1633068;86;20962;-63
2021/09/14 11:28:58;;;;;;;6.53;4.28;;;;;;;24.49;43.24;99442.19;1655388;85;21166;-63
2021/09/14 11:31:31;;;;;;;6.95;3.90;;;;;;;24.58;43.21;99440.52;1636791;86;21059;-64
2021/09/14 11:34:05;;;;;;;14.20;3.87;;;;;;;25.07;43.62;99436.29;1657089;85;21578;-64
2021/09/14 11:36:34;;;;;;;8.33;3.70;;;;;;;25.63;42.64;99450.31;1656498;86;20971;-65
2021/09/14 11:39:07;;;;;;;12.55;3.15;;;;;;;26.15;40.46;99435.99;1654120;85;21606;-64
2021/09/14 11:41:40;;;;;;;6.85;3.65;;;;;;;26.36;39.98;99434.30;1654461;85;21154;-65
2021/09/14 11:44:12;;;;;;;5.70;2.87;;;;;;;26.44;39.39;99430.77;1655490;85;20963;-64
2021/09/14 11:46:55;;;;;;;4.75;2.95;;;;;;;26.40;38.89;99435.66;1619789;85;21159;-64
2021/09/14 11:49:28;;;;;;;10.58;2.98;;;;;;;26.25;40.60;99438.66;1654599;86;21000;-64
2021/09/14 11:52:01;;;;;;;5.83;3.22;;;;;;;26.15;40.06;99436.78;1654994;85;21523;-64
2021/09/14 11:54:38;;;;;;;6.58;3.27;;;;;;;26.09;39.32;99428.63;1654708;85;21139;-64
2021/09/14 11:57:08;;;;;;;6.78;3.00;;;;;;;26.13;40.25;99435.01;1637199;86;21495;-64
2021/09/14 11:59:43;;;;;;;13.08;3.58;;;;;;;26.18;40.67;99428.91;1589674;86;21680;-64
2021/09/14 12:02:11;;;;;;;11.93;3.40;;;;;;;26.02;40.79;99437.17;1654419;85;21009;-64
2021/09/14 12:04:40;;;;;;;16.27;4.10;;;;;;;25.93;41.15;99431.30;1657879;85;20936;-64
2021/09/14 12:07:30;;;;;;;15.05;4.42;;;;;;;26.09;39.95;99421.60;1666289;85;20944;-64
2021/09/14 12:10:13;;;;;;;7.15;3.90;;;;;;;26.11;38.82;99425.40;1656559;85;20895;-65
2021/09/14 12:12:46;;;;;;;7.72;3.92;;;;;;;26.08;39.42;99427.05;1655155;85;20983;-63
2021/09/14 12:15:21;;;;;;;17.90;5.12;;;;;;;26.25;38.71;99422.38;1654151;85;21502;-64
2021/09/14 12:17:55;;;;;;;8.63;3.92;;;;;;;26.59;38.76;99416.63;1656662;86;21454;-63
2021/09/14 12:20:27;;;;;;;5.00;2.70;;;;;;;26.83;37.21;99408.38;1647995;85;20896;-64
2021/09/14 12:22:57;;;;;;;;;;;;;;;27.10;37.62;99410.36;1657319;85;21012;-64
2021/09/14 12:25:29;;;;;;;7.28;2.83;;;;;;;27.49;36.30;99412.39;1649597;85;20448;-66
2021/09/14 12:27:59;;;;;;;9.45;4.20;;;;;;;27.69;37.89;99413.84;1657404;85;21163;-64
2021/09/14 12:30:30;;;;;;;6.12;3.25;;;;;;;27.85;36.64;99413.25;1663646;85;21232;-64
2021/09/14 12:32:57;;;;;;;5.28;3.20;;;;;;;27.58;35.48;99417.64;1656808;85;21171;-64
2021/09/14 12:35:29;;;;;;;10.15;3.47;;;;;;;27.15;34.94;99425.36;1656069;85;20954;-64
2021/09/14 12:38:00;;;;;;;8.05;2.77;;;;;;;26.63;36.58;99426.61;1657372;85;20954;-64
2021/09/14 12:40:31;;;;;;;17.40;3.42;;;;;;;26.08;37.10;99426.24;1657878;85;21537;-64
2021/09/14 12:43:02;;;;;;;12.95;3.42;;;;;;;25.63;39.42;99435.66;1659002;86;20967;-63
2021/09/14 12:45:31;;;;;;;8.78;3.30;;;;;;;25.36;39.17;99433.99;1656872;85;21942;-64
2021/09/14 12:48:07;;;;;;;11.15;4.33;;;;;;;25.19;40.02;99424.53;1631595;85;21172;-64